sensor_id;sensor_type;location;lat;lon;timestamp;P1;durP1;ratioP1;P2;durP2;ratioP2
20020;SDS011;10171;42.694;23.318;2023-08-31T00:00:18;2.97;;;1.60;;
20020;SDS011;10171;42.694;23.318;2023-08-31T00:02:44;3.70;;;1.88;;
20020;SDS011;10171;42.694;23.318;2023-08-31T00:05:13;3.70;;;1.90;;
20020;SDS011;10171;42.694;23.318;2023-08-31T00:07:38;6.90;;;2.00;;
20020;SDS011;10171;42.694;23.318;2023-08-31T00:10:04;5.63;;;1.88;;
20020;SDS011;10171;42.694;23.318;2023-08-31T00:12:34;2.78;;;1.83;;
20020;SDS011;10171;42.694;23.318;2023-08-31T00:15:01;6.18;;;1.80;;
20020;SDS011;10171;42.694;23.318;2023-08-31T00:17:26;4.55;;;2.10;;
20020;SDS011;10171;42.694;23.318;2023-08-31T00:19:52;5.20;;;2.08;;
20020;SDS011;10171;42.694;23.318;2023-08-31T00:22:19;3.92;;;1.75;;
20020;SDS011;10171;42.694;23.318;2023-08-31T00:24:45;3.70;;;2.10;;
20020;SDS011;10171;42.694;23.318;2023-08-31T00:27:10;6.28;;;2.00;;
20020;SDS011;10171;42.694;23.318;2023-08-31T00:29:40;5.07;;;1.83;;
20020;SDS011;10171;42.694;23.318;2023-08-31T00:32:05;3.50;;;1.92;;
20020;SDS011;10171;42.694;23.318;2023-08-31T00:34:31;4.85;;;2.42;;
20020;SDS011;10171;42.694;23.318;2023-08-31T00:36:57;3.53;;;1.77;;
20020;SDS011;10171;42.694;23.318;2023-08-31T00:39:22;3.22;;;1.75;;
20020;SDS011;10171;42.694;23.318;2023-08-31T00:41:48;5.80;;;1.90;;
20020;SDS011;10171;42.694;23.318;2023-08-31T00:44:15;4.68;;;2.20;;
20020;SDS011;10171;42.694;23.318;2023-08-31T00:46:41;3.40;;;1.75;;
20020;SDS011;10171;42.694;23.318;2023-08-31T00:49:12;10.30;;;1.90;;
20020;SDS011;10171;42.694;23.318;2023-08-31T00:51:39;4.00;;;1.95;;
20020;SDS011;10171;42.694;23.318;2023-08-31T00:54:05;4.25;;;1.98;;
20020;SDS011;10171;42.694;23.318;2023-08-31T00:56:31;4.70;;;2.00;;
20020;SDS011;10171;42.694;23.318;2023-08-31T00:58:57;2.35;;;1.55;;
20020;SDS011;10171;42.694;23.318;2023-08-31T01:01:27;7.38;;;2.05;;
20020;SDS011;10171;42.694;23.318;2023-08-31T01:07:03;4.18;;;1.80;;
20020;SDS011;10171;42.694;23.318;2023-08-31T01:13:11;6.38;;;1.98;;
20020;SDS011;10171;42.694;23.318;2023-08-31T01:15:17;2.80;;;1.55;;
20020;SDS011;10171;42.694;23.318;2023-08-31T01:17:52;3.17;;;1.80;;
20020;SDS011;10171;42.694;23.318;2023-08-31T01:20:26;3.47;;;1.70;;
20020;SDS011;10171;42.694;23.318;2023-08-31T01:23:00;3.47;;;1.73;;
20020;SDS011;10171;42.694;23.318;2023-08-31T01:25:30;5.63;;;2.25;;
20020;SDS011;10171;42.694;23.318;2023-08-31T01:28:09;4.65;;;2.20;;
20020;SDS011;10171;42.694;23.318;2023-08-31T01:30:36;3.97;;;1.75;;
20020;SDS011;10171;42.694;23.318;2023-08-31T01:33:03;7.15;;;2.20;;
20020;SDS011;10171;42.694;23.318;2023-08-31T01:38:20;4.43;;;2.00;;
20020;SDS011;10171;42.694;23.318;2023-08-31T01:41:00;7.95;;;1.73;;
20020;SDS011;10171;42.694;23.318;2023-08-31T01:43:33;3.55;;;1.73;;
20020;SDS011;10171;42.694;23.318;2023-08-31T01:46:00;3.97;;;1.83;;
20020;SDS011;10171;42.694;23.318;2023-08-31T01:48:26;3.03;;;1.80;;
20020;SDS011;10171;42.694;23.318;2023-08-31T01:50:52;5.75;;;1.80;;
20020;SDS011;10171;42.694;23.318;2023-08-31T01:53:17;3.13;;;1.67;;
20020;SDS011;10171;42.694;23.318;2023-08-31T01:55:42;6.05;;;1.77;;
20020;SDS011;10171;42.694;23.318;2023-08-31T01:58:28;5.88;;;2.00;;
20020;SDS011;10171;42.694;23.318;2023-08-31T02:00:53;6.55;;;2.00;;
20020;SDS011;10171;42.694;23.318;2023-08-31T02:03:19;4.35;;;2.00;;
20020;SDS011;10171;42.694;23.318;2023-08-31T02:05:44;5.78;;;1.67;;
20020;SDS011;10171;42.694;23.318;2023-08-31T02:08:10;3.22;;;1.83;;
20020;SDS011;10171;42.694;23.318;2023-08-31T02:10:35;2.97;;;1.92;;
20020;SDS011;10171;42.694;23.318;2023-08-31T02:13:01;4.53;;;1.85;;
20020;SDS011;10171;42.694;23.318;2023-08-31T02:15:27;6.60;;;1.67;;
20020;SDS011;10171;42.694;23.318;2023-08-31T02:17:52;7.70;;;1.77;;
20020;SDS011;10171;42.694;23.318;2023-08-31T02:20:19;4.00;;;2.00;;
20020;SDS011;10171;42.694;23.318;2023-08-31T02:22:49;3.50;;;1.95;;
20020;SDS011;10171;42.694;23.318;2023-08-31T02:25:15;3.47;;;1.80;;
20020;SDS011;10171;42.694;23.318;2023-08-31T02:27:41;7.55;;;2.25;;
20020;SDS011;10171;42.694;23.318;2023-08-31T02:30:07;4.53;;;1.65;;
20020;SDS011;10171;42.694;23.318;2023-08-31T02:32:34;5.10;;;2.03;;
20020;SDS011;10171;42.694;23.318;2023-08-31T02:34:59;5.53;;;1.55;;
20020;SDS011;10171;42.694;23.318;2023-08-31T02:37:27;3.20;;;1.80;;
20020;SDS011;10171;42.694;23.318;2023-08-31T02:39:52;3.58;;;2.08;;
20020;SDS011;10171;42.694;23.318;2023-08-31T02:42:27;4.13;;;1.85;;
20020;SDS011;10171;42.694;23.318;2023-08-31T02:44:58;3.10;;;1.80;;
20020;SDS011;10171;42.694;23.318;2023-08-31T02:47:23;4.75;;;2.03;;
20020;SDS011;10171;42.694;23.318;2023-08-31T02:49:48;4.15;;;1.80;;
20020;SDS011;10171;42.694;23.318;2023-08-31T02:52:19;4.03;;;2.25;;
20020;SDS011;10171;42.694;23.318;2023-08-31T02:54:47;3.63;;;1.73;;
20020;SDS011;10171;42.694;23.318;2023-08-31T02:57:13;6.15;;;1.80;;
20020;SDS011;10171;42.694;23.318;2023-08-31T02:59:40;5.03;;;2.30;;
20020;SDS011;10171;42.694;23.318;2023-08-31T03:02:08;3.88;;;1.50;;
20020;SDS011;10171;42.694;23.318;2023-08-31T03:04:35;2.50;;;1.83;;
20020;SDS011;10171;42.694;23.318;2023-08-31T03:09:51;5.40;;;1.63;;
20020;SDS011;10171;42.694;23.318;2023-08-31T03:12:16;5.07;;;1.73;;
20020;SDS011;10171;42.694;23.318;2023-08-31T03:14:42;3.30;;;1.58;;
20020;SDS011;10171;42.694;23.318;2023-08-31T03:17:08;5.22;;;1.92;;
20020;SDS011;10171;42.694;23.318;2023-08-31T03:19:33;4.45;;;1.60;;
20020;SDS011;10171;42.694;23.318;2023-08-31T03:21:58;4.07;;;2.00;;
20020;SDS011;10171;42.694;23.318;2023-08-31T03:24:24;5.82;;;1.73;;
20020;SDS011;10171;42.694;23.318;2023-08-31T03:26:50;3.63;;;1.73;;
20020;SDS011;10171;42.694;23.318;2023-08-31T03:29:15;4.15;;;1.55;;
20020;SDS011;10171;42.694;23.318;2023-08-31T03:31:59;3.13;;;1.88;;
20020;SDS011;10171;42.694;23.318;2023-08-31T03:34:31;4.05;;;1.52;;
20020;SDS011;10171;42.694;23.318;2023-08-31T03:36:59;4.38;;;1.70;;
20020;SDS011;10171;42.694;23.318;2023-08-31T03:39:25;3.75;;;1.75;;
20020;SDS011;10171;42.694;23.318;2023-08-31T03:42:00;3.40;;;1.88;;
20020;SDS011;10171;42.694;23.318;2023-08-31T03:44:28;6.32;;;2.05;;
20020;SDS011;10171;42.694;23.318;2023-08-31T03:46:57;5.82;;;1.95;;
20020;SDS011;10171;42.694;23.318;2023-08-31T03:49:23;3.60;;;2.05;;
20020;SDS011;10171;42.694;23.318;2023-08-31T03:51:52;10.98;;;6.15;;
20020;SDS011;10171;42.694;23.318;2023-08-31T03:54:20;12.60;;;7.05;;
20020;SDS011;10171;42.694;23.318;2023-08-31T03:56:46;16.45;;;8.65;;
20020;SDS011;10171;42.694;23.318;2023-08-31T03:59:12;19.75;;;10.82;;
20020;SDS011;10171;42.694;23.318;2023-08-31T04:01:38;17.10;;;10.02;;
20020;SDS011;10171;42.694;23.318;2023-08-31T04:04:09;18.30;;;10.77;;
20020;SDS011;10171;42.694;23.318;2023-08-31T04:06:35;13.20;;;9.07;;
20020;SDS011;10171;42.694;23.318;2023-08-31T04:09:01;12.93;;;6.47;;
20020;SDS011;10171;42.694;23.318;2023-08-31T04:11:26;11.35;;;5.80;;
20020;SDS011;10171;42.694;23.318;2023-08-31T04:13:58;10.25;;;4.50;;
20020;SDS011;10171;42.694;23.318;2023-08-31T04:16:23;7.85;;;4.05;;
20020;SDS011;10171;42.694;23.318;2023-08-31T04:18:49;9.10;;;4.18;;
20020;SDS011;10171;42.694;23.318;2023-08-31T04:21:17;9.48;;;4.40;;
20020;SDS011;10171;42.694;23.318;2023-08-31T04:23:52;7.57;;;3.78;;
20020;SDS011;10171;42.694;23.318;2023-08-31T04:26:17;11.38;;;4.18;;
20020;SDS011;10171;42.694;23.318;2023-08-31T04:28:43;6.53;;;3.72;;
20020;SDS011;10171;42.694;23.318;2023-08-31T04:31:08;9.35;;;3.22;;
20020;SDS011;10171;42.694;23.318;2023-08-31T04:33:35;9.82;;;3.90;;
20020;SDS011;10171;42.694;23.318;2023-08-31T04:36:06;6.97;;;3.78;;
20020;SDS011;10171;42.694;23.318;2023-08-31T04:38:33;10.18;;;3.70;;
20020;SDS011;10171;42.694;23.318;2023-08-31T04:41:00;8.98;;;3.97;;
20020;SDS011;10171;42.694;23.318;2023-08-31T04:43:26;7.75;;;4.00;;
20020;SDS011;10171;42.694;23.318;2023-08-31T04:46:01;7.90;;;3.92;;
20020;SDS011;10171;42.694;23.318;2023-08-31T04:48:29;6.25;;;4.20;;
20020;SDS011;10171;42.694;23.318;2023-08-31T04:51:00;9.95;;;4.20;;
20020;SDS011;10171;42.694;23.318;2023-08-31T04:53:26;10.80;;;4.00;;
20020;SDS011;10171;42.694;23.318;2023-08-31T04:55:51;6.85;;;3.55;;
20020;SDS011;10171;42.694;23.318;2023-08-31T04:58:17;8.73;;;4.57;;
20020;SDS011;10171;42.694;23.318;2023-08-31T05:00:43;9.77;;;3.92;;
20020;SDS011;10171;42.694;23.318;2023-08-31T05:03:09;6.30;;;3.63;;
20020;SDS011;10171;42.694;23.318;2023-08-31T05:05:44;7.25;;;3.78;;
20020;SDS011;10171;42.694;23.318;2023-08-31T05:08:10;9.07;;;4.03;;
20020;SDS011;10171;42.694;23.318;2023-08-31T05:10:35;6.00;;;3.28;;
20020;SDS011;10171;42.694;23.318;2023-08-31T05:13:01;5.35;;;3.25;;
20020;SDS011;10171;42.694;23.318;2023-08-31T05:15:27;6.18;;;3.30;;
20020;SDS011;10171;42.694;23.318;2023-08-31T05:17:53;7.30;;;3.03;;
20020;SDS011;10171;42.694;23.318;2023-08-31T05:20:34;7.07;;;3.30;;
20020;SDS011;10171;42.694;23.318;2023-08-31T05:22:59;7.07;;;3.47;;
20020;SDS011;10171;42.694;23.318;2023-08-31T05:25:25;5.38;;;3.03;;
20020;SDS011;10171;42.694;23.318;2023-08-31T05:27:50;5.60;;;2.10;;
20020;SDS011;10171;42.694;23.318;2023-08-31T05:30:28;5.03;;;2.63;;
20020;SDS011;10171;42.694;23.318;2023-08-31T05:32:53;5.50;;;2.38;;
20020;SDS011;10171;42.694;23.318;2023-08-31T05:35:19;6.55;;;2.40;;
20020;SDS011;10171;42.694;23.318;2023-08-31T05:37:44;4.38;;;2.22;;
20020;SDS011;10171;42.694;23.318;2023-08-31T05:40:11;6.15;;;2.90;;
20020;SDS011;10171;42.694;23.318;2023-08-31T05:42:43;4.85;;;2.90;;
20020;SDS011;10171;42.694;23.318;2023-08-31T05:45:10;7.20;;;3.28;;
20020;SDS011;10171;42.694;23.318;2023-08-31T05:47:35;7.40;;;3.28;;
20020;SDS011;10171;42.694;23.318;2023-08-31T05:50:27;8.77;;;4.43;;
20020;SDS011;10171;42.694;23.318;2023-08-31T05:52:53;8.15;;;4.20;;
20020;SDS011;10171;42.694;23.318;2023-08-31T05:55:19;11.88;;;4.63;;
20020;SDS011;10171;42.694;23.318;2023-08-31T05:57:45;11.07;;;4.50;;
20020;SDS011;10171;42.694;23.318;2023-08-31T06:00:31;21.05;;;7.00;;
20020;SDS011;10171;42.694;23.318;2023-08-31T06:03:06;12.77;;;5.45;;
20020;SDS011;10171;42.694;23.318;2023-08-31T06:05:32;12.70;;;4.55;;
20020;SDS011;10171;42.694;23.318;2023-08-31T06:07:58;9.43;;;4.95;;
20020;SDS011;10171;42.694;23.318;2023-08-31T06:10:24;13.15;;;4.40;;
20020;SDS011;10171;42.694;23.318;2023-08-31T06:12:49;10.90;;;4.25;;
20020;SDS011;10171;42.694;23.318;2023-08-31T06:15:18;9.13;;;4.40;;
20020;SDS011;10171;42.694;23.318;2023-08-31T06:17:44;9.30;;;4.05;;
20020;SDS011;10171;42.694;23.318;2023-08-31T06:20:10;13.32;;;4.10;;
20020;SDS011;10171;42.694;23.318;2023-08-31T06:22:36;7.35;;;4.47;;
20020;SDS011;10171;42.694;23.318;2023-08-31T06:25:01;10.82;;;4.35;;
20020;SDS011;10171;42.694;23.318;2023-08-31T06:27:36;10.63;;;4.10;;
20020;SDS011;10171;42.694;23.318;2023-08-31T06:30:02;8.48;;;4.20;;
20020;SDS011;10171;42.694;23.318;2023-08-31T06:32:28;6.53;;;3.60;;
20020;SDS011;10171;42.694;23.318;2023-08-31T06:34:54;12.32;;;4.18;;
20020;SDS011;10171;42.694;23.318;2023-08-31T06:37:42;8.90;;;3.65;;
20020;SDS011;10171;42.694;23.318;2023-08-31T06:40:09;6.47;;;2.75;;
20020;SDS011;10171;42.694;23.318;2023-08-31T06:42:36;7.70;;;2.90;;
20020;SDS011;10171;42.694;23.318;2023-08-31T06:45:03;8.70;;;3.00;;
20020;SDS011;10171;42.694;23.318;2023-08-31T06:47:30;5.70;;;2.75;;
20020;SDS011;10171;42.694;23.318;2023-08-31T06:49:56;6.60;;;2.92;;
20020;SDS011;10171;42.694;23.318;2023-08-31T06:52:22;5.22;;;3.08;;
20020;SDS011;10171;42.694;23.318;2023-08-31T06:54:49;9.70;;;3.50;;
20020;SDS011;10171;42.694;23.318;2023-08-31T06:57:20;6.15;;;3.05;;
20020;SDS011;10171;42.694;23.318;2023-08-31T06:59:49;7.72;;;3.00;;
20020;SDS011;10171;42.694;23.318;2023-08-31T07:02:17;6.35;;;2.80;;
20020;SDS011;10171;42.694;23.318;2023-08-31T07:04:50;9.80;;;3.25;;
20020;SDS011;10171;42.694;23.318;2023-08-31T07:07:17;6.95;;;3.30;;
20020;SDS011;10171;42.694;23.318;2023-08-31T07:09:46;8.85;;;3.60;;
20020;SDS011;10171;42.694;23.318;2023-08-31T07:12:19;7.80;;;3.20;;
20020;SDS011;10171;42.694;23.318;2023-08-31T07:14:45;7.00;;;3.05;;
20020;SDS011;10171;42.694;23.318;2023-08-31T07:17:10;9.52;;;2.95;;
20020;SDS011;10171;42.694;23.318;2023-08-31T07:19:36;8.95;;;3.28;;
20020;SDS011;10171;42.694;23.318;2023-08-31T07:22:44;4.78;;;2.75;;
20020;SDS011;10171;42.694;23.318;2023-08-31T07:24:51;6.65;;;2.78;;
20020;SDS011;10171;42.694;23.318;2023-08-31T07:27:17;8.77;;;2.97;;
20020;SDS011;10171;42.694;23.318;2023-08-31T07:30:03;9.20;;;2.65;;
20020;SDS011;10171;42.694;23.318;2023-08-31T07:32:30;4.63;;;2.50;;
20020;SDS011;10171;42.694;23.318;2023-08-31T07:34:57;7.15;;;2.85;;
20020;SDS011;10171;42.694;23.318;2023-08-31T07:37:22;9.88;;;3.40;;
20020;SDS011;10171;42.694;23.318;2023-08-31T07:40:03;7.43;;;2.67;;
20020;SDS011;10171;42.694;23.318;2023-08-31T07:42:33;7.93;;;2.33;;
20020;SDS011;10171;42.694;23.318;2023-08-31T07:44:59;4.93;;;2.42;;
20020;SDS011;10171;42.694;23.318;2023-08-31T07:47:25;4.85;;;2.28;;
20020;SDS011;10171;42.694;23.318;2023-08-31T07:49:50;5.88;;;2.20;;
20020;SDS011;10171;42.694;23.318;2023-08-31T07:52:16;4.72;;;2.60;;
20020;SDS011;10171;42.694;23.318;2023-08-31T07:54:41;4.38;;;2.03;;
20020;SDS011;10171;42.694;23.318;2023-08-31T07:57:07;5.95;;;2.05;;
20020;SDS011;10171;42.694;23.318;2023-08-31T07:59:33;4.57;;;1.75;;
20020;SDS011;10171;42.694;23.318;2023-08-31T08:01:59;4.65;;;1.67;;
20020;SDS011;10171;42.694;23.318;2023-08-31T08:04:24;6.82;;;2.10;;
20020;SDS011;10171;42.694;23.318;2023-08-31T08:06:54;4.63;;;1.98;;
20020;SDS011;10171;42.694;23.318;2023-08-31T08:09:20;8.57;;;2.35;;
20020;SDS011;10171;42.694;23.318;2023-08-31T08:11:45;3.30;;;2.22;;
20020;SDS011;10171;42.694;23.318;2023-08-31T08:14:11;6.78;;;2.55;;
20020;SDS011;10171;42.694;23.318;2023-08-31T08:16:36;6.55;;;2.60;;
20020;SDS011;10171;42.694;23.318;2023-08-31T08:19:02;5.32;;;2.20;;
20020;SDS011;10171;42.694;23.318;2023-08-31T08:21:28;12.50;;;2.90;;
20020;SDS011;10171;42.694;23.318;2023-08-31T08:23:53;6.40;;;2.67;;
20020;SDS011;10171;42.694;23.318;2023-08-31T08:26:19;4.57;;;2.67;;
20020;SDS011;10171;42.694;23.318;2023-08-31T08:28:45;5.90;;;2.60;;
20020;SDS011;10171;42.694;23.318;2023-08-31T08:31:11;44.45;;;10.90;;
20020;SDS011;10171;42.694;23.318;2023-08-31T08:33:36;15.00;;;5.43;;
20020;SDS011;10171;42.694;23.318;2023-08-31T08:36:02;12.82;;;4.57;;
20020;SDS011;10171;42.694;23.318;2023-08-31T08:38:27;30.88;;;8.95;;
20020;SDS011;10171;42.694;23.318;2023-08-31T08:40:53;10.45;;;4.57;;
20020;SDS011;10171;42.694;23.318;2023-08-31T08:43:24;15.45;;;5.05;;
20020;SDS011;10171;42.694;23.318;2023-08-31T08:45:52;7.63;;;3.58;;
20020;SDS011;10171;42.694;23.318;2023-08-31T08:48:19;9.13;;;3.78;;
20020;SDS011;10171;42.694;23.318;2023-08-31T08:50:46;9.43;;;3.90;;
20020;SDS011;10171;42.694;23.318;2023-08-31T08:53:13;7.05;;;3.25;;
20020;SDS011;10171;42.694;23.318;2023-08-31T08:55:43;8.02;;;3.63;;
20020;SDS011;10171;42.694;23.318;2023-08-31T08:58:08;11.70;;;4.35;;
20020;SDS011;10171;42.694;23.318;2023-08-31T09:00:35;9.38;;;3.70;;
20020;SDS011;10171;42.694;23.318;2023-08-31T09:03:01;7.63;;;3.35;;
20020;SDS011;10171;42.694;23.318;2023-08-31T09:05:32;7.18;;;3.30;;
20020;SDS011;10171;42.694;23.318;2023-08-31T09:08:05;5.53;;;3.40;;
20020;SDS011;10171;42.694;23.318;2023-08-31T09:10:38;6.63;;;3.78;;
20020;SDS011;10171;42.694;23.318;2023-08-31T09:13:08;6.53;;;3.33;;
20020;SDS011;10171;42.694;23.318;2023-08-31T09:16:12;5.35;;;3.13;;
20020;SDS011;10171;42.694;23.318;2023-08-31T09:18:27;6.90;;;3.72;;
20020;SDS011;10171;42.694;23.318;2023-08-31T09:20:55;6.28;;;3.58;;
20020;SDS011;10171;42.694;23.318;2023-08-31T09:23:24;7.85;;;3.47;;
20020;SDS011;10171;42.694;23.318;2023-08-31T09:25:50;5.03;;;3.38;;
20020;SDS011;10171;42.694;23.318;2023-08-31T09:28:21;6.80;;;3.15;;
20020;SDS011;10171;42.694;23.318;2023-08-31T09:30:49;4.88;;;2.83;;
20020;SDS011;10171;42.694;23.318;2023-08-31T09:33:16;7.38;;;3.20;;
20020;SDS011;10171;42.694;23.318;2023-08-31T09:35:53;7.53;;;3.67;;
20020;SDS011;10171;42.694;23.318;2023-08-31T09:38:21;6.63;;;3.47;;
20020;SDS011;10171;42.694;23.318;2023-08-31T09:40:47;5.32;;;3.45;;
20020;SDS011;10171;42.694;23.318;2023-08-31T09:43:18;6.60;;;4.00;;
20020;SDS011;10171;42.694;23.318;2023-08-31T09:45:46;7.88;;;3.22;;
20020;SDS011;10171;42.694;23.318;2023-08-31T09:48:12;5.38;;;3.40;;
20020;SDS011;10171;42.694;23.318;2023-08-31T09:50:40;7.30;;;3.47;;
20020;SDS011;10171;42.694;23.318;2023-08-31T09:53:09;6.80;;;3.33;;
20020;SDS011;10171;42.694;23.318;2023-08-31T09:55:35;8.68;;;4.13;;
20020;SDS011;10171;42.694;23.318;2023-08-31T09:58:03;4.97;;;3.50;;
20020;SDS011;10171;42.694;23.318;2023-08-31T10:00:34;6.07;;;3.45;;
20020;SDS011;10171;42.694;23.318;2023-08-31T10:03:02;7.03;;;4.00;;
20020;SDS011;10171;42.694;23.318;2023-08-31T10:05:28;7.20;;;3.90;;
20020;SDS011;10171;42.694;23.318;2023-08-31T10:07:54;7.30;;;3.33;;
20020;SDS011;10171;42.694;23.318;2023-08-31T10:10:20;5.35;;;3.67;;
20020;SDS011;10171;42.694;23.318;2023-08-31T10:12:50;7.50;;;3.75;;
20020;SDS011;10171;42.694;23.318;2023-08-31T10:15:17;5.78;;;3.85;;
20020;SDS011;10171;42.694;23.318;2023-08-31T10:17:43;6.38;;;3.75;;
20020;SDS011;10171;42.694;23.318;2023-08-31T10:20:13;5.60;;;3.78;;
20020;SDS011;10171;42.694;23.318;2023-08-31T10:22:41;6.78;;;3.50;;
20020;SDS011;10171;42.694;23.318;2023-08-31T10:25:07;7.47;;;4.32;;
20020;SDS011;10171;42.694;23.318;2023-08-31T10:27:43;7.88;;;4.00;;
20020;SDS011;10171;42.694;23.318;2023-08-31T10:33:33;5.20;;;3.75;;
20020;SDS011;10171;42.694;23.318;2023-08-31T10:38:15;5.53;;;3.25;;
20020;SDS011;10171;42.694;23.318;2023-08-31T10:40:41;7.05;;;3.70;;
20020;SDS011;10171;42.694;23.318;2023-08-31T10:43:15;6.32;;;3.97;;
20020;SDS011;10171;42.694;23.318;2023-08-31T10:45:44;6.20;;;3.78;;
20020;SDS011;10171;42.694;23.318;2023-08-31T10:48:11;6.20;;;4.10;;
20020;SDS011;10171;42.694;23.318;2023-08-31T10:50:40;5.88;;;3.25;;
20020;SDS011;10171;42.694;23.318;2023-08-31T10:53:09;3.47;;;2.83;;
20020;SDS011;10171;42.694;23.318;2023-08-31T10:55:52;4.30;;;3.20;;
20020;SDS011;10171;42.694;23.318;2023-08-31T10:58:18;7.45;;;3.63;;
20020;SDS011;10171;42.694;23.318;2023-08-31T11:00:50;4.65;;;2.92;;
20020;SDS011;10171;42.694;23.318;2023-08-31T11:03:17;5.63;;;3.55;;
20020;SDS011;10171;42.694;23.318;2023-08-31T11:05:52;5.55;;;3.38;;
20020;SDS011;10171;42.694;23.318;2023-08-31T11:08:25;6.05;;;3.40;;
20020;SDS011;10171;42.694;23.318;2023-08-31T11:10:51;7.35;;;3.67;;
20020;SDS011;10171;42.694;23.318;2023-08-31T11:13:20;3.38;;;2.78;;
20020;SDS011;10171;42.694;23.318;2023-08-31T11:15:48;5.55;;;3.45;;
20020;SDS011;10171;42.694;23.318;2023-08-31T11:18:14;4.65;;;2.90;;
20020;SDS011;10171;42.694;23.318;2023-08-31T11:20:42;7.68;;;3.45;;
20020;SDS011;10171;42.694;23.318;2023-08-31T11:23:09;4.82;;;3.08;;
20020;SDS011;10171;42.694;23.318;2023-08-31T11:25:35;5.40;;;3.38;;
20020;SDS011;10171;42.694;23.318;2023-08-31T11:28:02;5.68;;;3.17;;
20020;SDS011;10171;42.694;23.318;2023-08-31T11:30:35;6.93;;;3.85;;
20020;SDS011;10171;42.694;23.318;2023-08-31T11:33:02;5.15;;;2.92;;
20020;SDS011;10171;42.694;23.318;2023-08-31T11:35:38;5.47;;;3.40;;
20020;SDS011;10171;42.694;23.318;2023-08-31T11:38:06;6.25;;;3.28;;
20020;SDS011;10171;42.694;23.318;2023-08-31T11:40:32;5.53;;;3.03;;
20020;SDS011;10171;42.694;23.318;2023-08-31T11:42:58;5.82;;;2.83;;
20020;SDS011;10171;42.694;23.318;2023-08-31T11:45:28;6.68;;;3.30;;
20020;SDS011;10171;42.694;23.318;2023-08-31T11:47:55;7.18;;;2.95;;
20020;SDS011;10171;42.694;23.318;2023-08-31T11:50:21;7.65;;;2.95;;
20020;SDS011;10171;42.694;23.318;2023-08-31T11:52:47;5.03;;;2.80;;
20020;SDS011;10171;42.694;23.318;2023-08-31T11:55:14;6.18;;;2.67;;
20020;SDS011;10171;42.694;23.318;2023-08-31T11:57:52;4.60;;;2.60;;
20020;SDS011;10171;42.694;23.318;2023-08-31T12:00:22;7.47;;;2.92;;
20020;SDS011;10171;42.694;23.318;2023-08-31T12:02:58;6.38;;;2.88;;
20020;SDS011;10171;42.694;23.318;2023-08-31T12:05:23;4.93;;;2.55;;
20020;SDS011;10171;42.694;23.318;2023-08-31T12:07:50;5.75;;;2.67;;
20020;SDS011;10171;42.694;23.318;2023-08-31T12:10:18;6.35;;;2.50;;
20020;SDS011;10171;42.694;23.318;2023-08-31T12:12:43;6.18;;;2.85;;
20020;SDS011;10171;42.694;23.318;2023-08-31T12:15:09;5.97;;;3.53;;
20020;SDS011;10171;42.694;23.318;2023-08-31T12:17:36;5.22;;;2.78;;
20020;SDS011;10171;42.694;23.318;2023-08-31T12:20:04;3.88;;;2.80;;
20020;SDS011;10171;42.694;23.318;2023-08-31T12:22:30;5.45;;;2.45;;
20020;SDS011;10171;42.694;23.318;2023-08-31T12:24:56;5.15;;;2.88;;
20020;SDS011;10171;42.694;23.318;2023-08-31T12:27:21;3.92;;;2.53;;
20020;SDS011;10171;42.694;23.318;2023-08-31T12:29:47;5.18;;;2.67;;
20020;SDS011;10171;42.694;23.318;2023-08-31T12:32:13;3.97;;;2.75;;
20020;SDS011;10171;42.694;23.318;2023-08-31T12:34:39;5.45;;;2.80;;
20020;SDS011;10171;42.694;23.318;2023-08-31T12:37:05;4.63;;;2.70;;
20020;SDS011;10171;42.694;23.318;2023-08-31T12:39:31;4.97;;;2.67;;
20020;SDS011;10171;42.694;23.318;2023-08-31T12:41:57;4.57;;;2.40;;
20020;SDS011;10171;42.694;23.318;2023-08-31T12:44:22;5.68;;;2.40;;
20020;SDS011;10171;42.694;23.318;2023-08-31T12:46:50;3.97;;;2.28;;
20020;SDS011;10171;42.694;23.318;2023-08-31T12:49:15;4.88;;;2.10;;
20020;SDS011;10171;42.694;23.318;2023-08-31T12:51:41;5.28;;;2.85;;
20020;SDS011;10171;42.694;23.318;2023-08-31T12:54:06;4.68;;;2.30;;
20020;SDS011;10171;42.694;23.318;2023-08-31T12:56:33;2.38;;;2.13;;
20020;SDS011;10171;42.694;23.318;2023-08-31T12:58:58;5.63;;;2.47;;
20020;SDS011;10171;42.694;23.318;2023-08-31T13:01:24;4.10;;;2.60;;
20020;SDS011;10171;42.694;23.318;2023-08-31T13:03:50;5.78;;;2.28;;
20020;SDS011;10171;42.694;23.318;2023-08-31T13:08:59;7.22;;;3.00;;
20020;SDS011;10171;42.694;23.318;2023-08-31T13:11:25;3.92;;;2.47;;
20020;SDS011;10171;42.694;23.318;2023-08-31T13:13:50;5.95;;;2.35;;
20020;SDS011;10171;42.694;23.318;2023-08-31T13:16:16;4.82;;;2.47;;
20020;SDS011;10171;42.694;23.318;2023-08-31T13:18:42;5.75;;;3.17;;
20020;SDS011;10171;42.694;23.318;2023-08-31T13:21:08;7.15;;;2.35;;
20020;SDS011;10171;42.694;23.318;2023-08-31T13:23:33;6.57;;;2.40;;
20020;SDS011;10171;42.694;23.318;2023-08-31T13:25:59;4.80;;;2.80;;
20020;SDS011;10171;42.694;23.318;2023-08-31T13:28:24;6.07;;;2.80;;
20020;SDS011;10171;42.694;23.318;2023-08-31T13:30:56;3.35;;;2.35;;
20020;SDS011;10171;42.694;23.318;2023-08-31T13:33:26;10.15;;;2.75;;
20020;SDS011;10171;42.694;23.318;2023-08-31T13:35:58;3.50;;;2.20;;
20020;SDS011;10171;42.694;23.318;2023-08-31T13:38:24;6.43;;;3.38;;
20020;SDS011;10171;42.694;23.318;2023-08-31T13:40:58;4.88;;;3.20;;
20020;SDS011;10171;42.694;23.318;2023-08-31T13:43:24;3.97;;;2.47;;
20020;SDS011;10171;42.694;23.318;2023-08-31T13:45:50;6.60;;;3.35;;
20020;SDS011;10171;42.694;23.318;2023-08-31T13:48:29;4.65;;;3.03;;
20020;SDS011;10171;42.694;23.318;2023-08-31T13:50:55;6.20;;;2.85;;
20020;SDS011;10171;42.694;23.318;2023-08-31T13:53:20;5.90;;;2.65;;
20020;SDS011;10171;42.694;23.318;2023-08-31T13:55:45;5.40;;;2.53;;
20020;SDS011;10171;42.694;23.318;2023-08-31T13:58:11;5.15;;;2.38;;
20020;SDS011;10171;42.694;23.318;2023-08-31T14:00:37;3.72;;;2.55;;
20020;SDS011;10171;42.694;23.318;2023-08-31T14:03:03;3.83;;;2.65;;
20020;SDS011;10171;42.694;23.318;2023-08-31T14:05:29;6.00;;;2.60;;
20020;SDS011;10171;42.694;23.318;2023-08-31T14:07:55;4.82;;;2.38;;
20020;SDS011;10171;42.694;23.318;2023-08-31T14:10:22;7.90;;;2.72;;
20020;SDS011;10171;42.694;23.318;2023-08-31T14:12:49;4.72;;;2.40;;
20020;SDS011;10171;42.694;23.318;2023-08-31T14:15:14;6.95;;;2.78;;
20020;SDS011;10171;42.694;23.318;2023-08-31T14:17:40;7.03;;;2.50;;
20020;SDS011;10171;42.694;23.318;2023-08-31T14:20:06;6.05;;;2.47;;
20020;SDS011;10171;42.694;23.318;2023-08-31T14:22:34;5.60;;;2.60;;
20020;SDS011;10171;42.694;23.318;2023-08-31T14:25:00;6.35;;;2.53;;
20020;SDS011;10171;42.694;23.318;2023-08-31T14:27:28;6.20;;;3.50;;
20020;SDS011;10171;42.694;23.318;2023-08-31T14:29:56;7.50;;;3.00;;
20020;SDS011;10171;42.694;23.318;2023-08-31T14:32:23;6.38;;;2.53;;
20020;SDS011;10171;42.694;23.318;2023-08-31T14:34:48;7.07;;;2.40;;
20020;SDS011;10171;42.694;23.318;2023-08-31T14:37:14;5.30;;;2.47;;
20020;SDS011;10171;42.694;23.318;2023-08-31T14:39:42;7.35;;;2.45;;
20020;SDS011;10171;42.694;23.318;2023-08-31T14:42:07;6.10;;;2.67;;
20020;SDS011;10171;42.694;23.318;2023-08-31T14:44:33;6.13;;;3.30;;
20020;SDS011;10171;42.694;23.318;2023-08-31T14:46:58;7.22;;;3.85;;
20020;SDS011;10171;42.694;23.318;2023-08-31T14:49:24;5.30;;;2.50;;
20020;SDS011;10171;42.694;23.318;2023-08-31T14:51:50;7.22;;;2.97;;
20020;SDS011;10171;42.694;23.318;2023-08-31T14:54:18;7.03;;;3.05;;
20020;SDS011;10171;42.694;23.318;2023-08-31T14:56:44;6.55;;;3.03;;